NCAR-RAP Real-Time Weather Data

Output produced by METARs form (14 October 2019  23:54 UTC)
found at http://weather.rap.ucar.edu/surface/
 
KFAR 142253Z 15006KT 10SM CLR 08/02 A2986 RMK AO2 SLP121 T00830017
KFAR 142153Z 15006KT 10SM CLR 09/02 A2986 RMK AO2 SLP120 T00890017
KFAR 142053Z 12004KT 10SM CLR 09/02 A2987 RMK AO2 SLP122 T00940017 56020
KFAR 141953Z 20005KT 10SM CLR 08/01 A2988 RMK AO2 SLP125 T00830011
KFAR 141853Z 17007KT 10SM OVC041 08/01 A2990 RMK AO2 SLP133 T00780011
KFAR 141753Z 21005KT 10SM OVC043 06/01 A2993 RMK AO2 SLP143 T00610006 10067 20011 57006
KFAR 141653Z 18005KT 10SM OVC043 04/01 A2993 RMK AO2 SLP145 T00440006
KFAR 141553Z 20008KT 10SM OVC043 03/00 A2994 RMK AO2 SLP150 T00330000
KFAR 141453Z 20007KT 10SM OVC042 02/M01 A2994 RMK AO2 SLP151 T00221006 53004
KFAR 141353Z 19006KT 10SM OVC050 02/M01 A2994 RMK AO2 SLP149 T00221006
KFAR 141253Z 20005KT 10SM OVC050 01/M01 A2993 RMK AO2 SLP147 T00111006
KFAR 141153Z AUTO 20006KT 10SM OVC055 01/00 A2993 RMK AO2 SLP147 70001 T00110000 10022 20011 56001
KFAR 141053Z 21006KT 10SM OVC055 02/00 A2993 RMK AO2 SLP147 T00170000
KFAR 140953Z 21005KT 10SM OVC060 02/01 A2993 RMK AO2 SLP146 T00170006
KFAR 140853Z 24005KT 10SM OVC070 02/01 A2994 RMK AO2 SLP146 T00220006 56000
KFAR 140753Z 26006KT 10SM OVC075 02/01 A2994 RMK AO2 SLP147 T00220006
KFAR 140653Z 23005KT 10SM OVC075 02/01 A2993 RMK AO2 SLP145 T00220006
KFAR 140553Z 23005KT 10SM OVC075 02/01 A2994 RMK AO2 SLP147 T00220006 10028 20017 400610000 53001
KFAR 140453Z 25003KT 10SM OVC085 02/01 A2993 RMK AO2 SLP145 T00220006
KFAR 140353Z 24003KT 10SM OVC100 02/00 A2993 RMK AO2 SLP146 T00170000
KFAR 140253Z 29005KT 10SM OVC100 02/M01 A2993 RMK AO2 SLP147 T00221006 53004
KFAR 140153Z AUTO 32008KT 10SM FEW024 OVC110 03/M01 A2992 RMK AO2 SLP144 T00281006
KFAR 140151Z AUTO 32009KT 10SM SCT024 OVC110 03/M01 A2992 RMK AO2
KFAR 140115Z AUTO 29008KT 10SM BKN025 BKN110 02/M01 A2992 RMK AO2 T00221006
KFAR 140053Z AUTO 29007KT 10SM FEW120 02/M01 A2992 RMK AO2 SLP143 T00221006
KFAR 132353Z 29010KT 10SM FEW030 BKN050 03/M01 A2990 RMK AO2 SLP136 T00281006 10061 20028 53019
KFAR 132253Z 30012KT 10SM OVC050 04/M01 A2987 RMK AO2 SLP125 T00441006
KFAR 132153Z 29013KT 10SM OVC050 05/M01 A2986 RMK AO2 SLP120 T00501011
KFAR 132053Z 31010KT 10SM FEW030 SCT036 OVC050 06/M01 A2984 RMK AO2 SLP116 T00561011 53009
KFAR 132018Z 31010KT 10SM SCT029 BKN039 BKN047 06/M01 A2984 RMK AO2 T00561006
KFAR 131953Z 35008KT 10SM BKN029 BKN035 05/00 A2983 RMK AO2 SLP111 T00500000
KFAR 131853Z 32013KT 10SM SCT020 OVC026 04/00 A2983 RMK AO2 SLP111 T00390000
KFAR 131753Z 31011KT 10SM OVC017 03/00 A2982 RMK AO2 SLP108 60001 T00280000 10028 20006 53019
KFAR 131707Z 32013KT 10SM OVC015 03/00 A2980 RMK AO2 T00280000
KFAR 131653Z 32014KT 10SM OVC014 03/00 A2980 RMK AO2 SLP100 T00280000
KFAR 131553Z 32014G21KT 10SM OVC015 02/00 A2978 RMK AO2 SLP095 T00220000
KFAR 131539Z 31014KT 10SM BKN014 OVC021 02/00 A2978 RMK AO2 T00220000
KFAR 131529Z 31014KT 10SM BKN015 OVC022 02/00 A2978 RMK AO2 T00220000
KFAR 131453Z AUTO 31012KT 10SM OVC012 01/00 A2976 RMK AO2 SLP088 60001 T00110000 53020
KFAR 131353Z AUTO 30012KT 10SM OVC014 01/M01 A2974 RMK AO2 SNB1258E08 SLP082 P0000 T00111006
KFAR 131253Z AUTO 29012KT 10SM BKN017 OVC075 01/M01 A2971 RMK AO2 SNE26 SLP073 P0001 T00061006
KFAR 131153Z AUTO 30011KT 4SM -SN BR SCT009 OVC030 01/M01 A2970 RMK AO2 SLP067 P0001 60002 70009 T00061006 10011 20000 53009
KFAR 131144Z AUTO 29011KT 4SM -SN BR SCT009 OVC030 01/M01 A2970 RMK AO2 P0001 T00061006
KFAR 131124Z AUTO 30014KT 3SM -SN BR BKN008 OVC013 01/M01 A2969 RMK AO2 P0001 T00061006
KFAR 131118Z AUTO 30012KT 2 1/2SM -SN BR SCT008 OVC014 00/00 A2969 RMK AO2 P0001 T00000000
KFAR 131102Z AUTO 29012KT 2SM -SN BR FEW007 OVC022 01/00 A2969 RMK AO2 P0000 T00060000
KFAR 131053Z AUTO 29012KT 4SM -SN BR SCT007 OVC026 01/00 A2969 RMK AO2 SLP064 P0001 T00060000
KFAR 131042Z AUTO 29010KT 4SM -SN BR FEW007 OVC030 01/00 A2968 RMK AO2 P0001 T00060000
KFAR 131034Z AUTO 29012KT 2 1/2SM -SN BR SCT007 OVC017 01/00 A2968 RMK AO2 P0001 T00060000
KFAR 131008Z AUTO 29012KT 2SM -SN BR FEW006 OVC014 00/00 A2968 RMK AO2 P0001 T00000000
KFAR 130953Z AUTO 29010KT 2 1/2SM -SN BR SCT007 SCT012 OVC016 01/00 A2968 RMK AO2 SNB04 SLP060 P0000 T00060000
KFAR 130938Z AUTO 29011KT 2SM -SN BR SCT007 OVC018 01/00 A2968 RMK AO2 SNB04 P0000 T00060000
KFAR 130929Z AUTO 29012KT 3SM -SN BR FEW008 SCT014 OVC020 01/00 A2967 RMK AO2 SNB04 P0000 T00060000
KFAR 130912Z AUTO 29009KT 4SM -SN BR SCT009 BKN014 OVC026 01/00 A2967 RMK AO2 SNB04 P0000 T00060000
KFAR 130859Z AUTO 29010KT 10SM SCT009 BKN015 OVC034 01/00 A2967 RMK AO2 T00060000
KFAR 130853Z AUTO 29011KT 9SM BKN011 BKN025 OVC034 01/00 A2967 RMK AO2 SNE18B40E51 SLP058 P0000 60000 T00060000 53012
KFAR 130848Z AUTO 30010KT 5SM -SN BR BKN009 OVC027 01/00 A2967 RMK AO2 SNE18B40 P0000
KFAR 130842Z AUTO 30010KT 5SM -SN BR SCT009 BKN029 OVC034 01/00 A2967 RMK AO2 SNE18B40 P0000 T00060000
KFAR 130753Z AUTO 30011KT 9SM -SN FEW013 OVC033 01/00 A2966 RMK AO2 SNB47 SLP054 P0000 T00060000
KFAR 130721Z AUTO 30012KT 10SM SCT010 OVC036 01/00 A2965 RMK AO2 T00060000
KFAR 130703Z AUTO 30012G19KT 10SM BKN010 OVC030 01/00 A2965 RMK AO2 T00060000
KFAR 130653Z AUTO 30012KT 10SM SCT011 OVC030 01/00 A2964 RMK AO2 SNE03 SLP049 P0000 T00060000
KFAR 130626Z 30011KT 10SM SCT011 OVC033 01/00 A2964 RMK AO2 SNE03 P0000 T00110000
KFAR 130618Z 30013KT 10SM BKN011 BKN023 OVC036 01/00 A2964 RMK AO2 SNE03 P0000 T00110000
KFAR 130605Z 30013KT 9SM BKN009 OVC013 01/00 A2964 RMK AO2 SNE03 P0000 T00110000
KFAR 130553Z 30013KT 6SM -SN BR FEW009 OVC012 01/00 A2964 RMK AO2 SNB35 SLP046 P0000 60003 T00110000 10017 20006 400220000 55000
KFAR 130453Z 30012KT 10SM OVC011 01/00 A2963 RMK AO2 SLP045 T00110000
KFAR 130449Z 30011KT 10SM OVC011 01/00 A2963 RMK AO2
KFAR 130421Z 30012G18KT 7SM BKN008 OVC013 01/00 A2963 RMK AO2 T00110000
KFAR 130353Z 31006KT 10SM OVC013 01/01 A2964 RMK AO2 UPB0254E05SNE0254 SLP046 P0000 T00110006
KFAR 130324Z 31009KT 10SM FEW007 OVC013 01/01 A2964 RMK AO2 UPB0254E05SNE0254 P0000 T00110006
KFAR 130301Z 32008KT 5SM UP BR SCT007 OVC015 01/01 A2963 RMK AO2 UPB0254SNE0254 P0000 T00110006
KFAR 130253Z 32008KT 9SM -SN SCT007 BKN013 OVC019 01/01 A2963 RMK AO2 UPB20E42SNE20B42 SLP045 P0003 60003 T00110006 51015
KFAR 130222Z 34006KT 3SM UP BR OVC011 01/01 A2962 RMK AO2 UPB20SNE20 P0002 T00060006
KFAR 130217Z 33006KT 2 1/2SM -SN BR BKN008 OVC011 01/00 A2962 RMK AO2 P0002 T00060000
KFAR 130153Z 35010G19KT 3SM -SN BR FEW007 OVC013 01/00 A2962 RMK AO2 SNB46 SLP042 P0000 T00110000
KFAR 130145Z 31013KT 8SM BKN013 OVC019 02/00 A2962 RMK AO2 T00170000
KFAR 130053Z 30017KT 10SM BKN017 OVC024 02/M01 A2960 RMK AO2 SLP035 T00171006